sensor_id;sensor_type;location;lat;lon;timestamp;temperature;humidity
49132;DHT22;35149;51.196;6.204;2023-07-22T00:00:58;18.70;56.90
49132;DHT22;35149;51.196;6.204;2023-07-22T00:03:25;18.70;56.80
49132;DHT22;35149;51.196;6.204;2023-07-22T00:08:34;18.70;56.60
49132;DHT22;35149;51.196;6.204;2023-07-22T00:11:04;18.80;56.20
49132;DHT22;35149;51.196;6.204;2023-07-22T00:13:31;18.70;55.90
49132;DHT22;35149;51.196;6.204;2023-07-22T00:15:59;18.70;56.00
49132;DHT22;35149;51.196;6.204;2023-07-22T00:18:28;18.70;55.90
49132;DHT22;35149;51.196;6.204;2023-07-22T00:20:57;18.70;55.80
49132;DHT22;35149;51.196;6.204;2023-07-22T00:23:27;18.70;55.70
49132;DHT22;35149;51.196;6.204;2023-07-22T00:25:58;18.70;55.40
49132;DHT22;35149;51.196;6.204;2023-07-22T00:28:25;18.70;55.40
49132;DHT22;35149;51.196;6.204;2023-07-22T00:30:52;18.70;55.40
49132;DHT22;35149;51.196;6.204;2023-07-22T00:33:21;18.70;55.40
49132;DHT22;35149;51.196;6.204;2023-07-22T00:35:48;18.70;55.40
49132;DHT22;35149;51.196;6.204;2023-07-22T00:38:18;18.70;55.60
49132;DHT22;35149;51.196;6.204;2023-07-22T00:40:48;18.70;55.30
49132;DHT22;35149;51.196;6.204;2023-07-22T00:43:15;18.70;55.20
49132;DHT22;35149;51.196;6.204;2023-07-22T00:45:42;18.70;55.00
49132;DHT22;35149;51.196;6.204;2023-07-22T00:48:13;18.80;55.00
49132;DHT22;35149;51.196;6.204;2023-07-22T00:50:40;18.70;54.60
49132;DHT22;35149;51.196;6.204;2023-07-22T00:53:10;18.70;54.50
49132;DHT22;35149;51.196;6.204;2023-07-22T00:55:39;18.70;54.60
49132;DHT22;35149;51.196;6.204;2023-07-22T00:58:12;18.80;54.40
49132;DHT22;35149;51.196;6.204;2023-07-22T01:00:40;18.70;54.50
49132;DHT22;35149;51.196;6.204;2023-07-22T01:03:07;18.70;54.30
49132;DHT22;35149;51.196;6.204;2023-07-22T01:05:39;18.70;54.40
49132;DHT22;35149;51.196;6.204;2023-07-22T01:08:08;18.70;54.20
49132;DHT22;35149;51.196;6.204;2023-07-22T01:10:35;18.70;54.10
49132;DHT22;35149;51.196;6.204;2023-07-22T01:13:08;18.60;53.80
49132;DHT22;35149;51.196;6.204;2023-07-22T01:15:36;18.60;54.00
49132;DHT22;35149;51.196;6.204;2023-07-22T01:18:04;18.50;54.00
49132;DHT22;35149;51.196;6.204;2023-07-22T01:20:33;18.60;53.90
49132;DHT22;35149;51.196;6.204;2023-07-22T01:23:01;18.50;54.50
49132;DHT22;35149;51.196;6.204;2023-07-22T01:25:31;18.50;53.90
49132;DHT22;35149;51.196;6.204;2023-07-22T01:27:59;18.50;53.90
49132;DHT22;35149;51.196;6.204;2023-07-22T01:30:27;18.50;54.00
49132;DHT22;35149;51.196;6.204;2023-07-22T01:33:01;18.50;54.10
49132;DHT22;35149;51.196;6.204;2023-07-22T01:35:38;18.40;53.90
49132;DHT22;35149;51.196;6.204;2023-07-22T01:38:04;18.40;53.70
49132;DHT22;35149;51.196;6.204;2023-07-22T01:40:33;18.40;53.60
49132;DHT22;35149;51.196;6.204;2023-07-22T01:43:01;18.40;53.60
49132;DHT22;35149;51.196;6.204;2023-07-22T01:45:30;18.40;53.60
49132;DHT22;35149;51.196;6.204;2023-07-22T01:47:57;18.40;53.60
49132;DHT22;35149;51.196;6.204;2023-07-22T01:50:24;18.30;53.60
49132;DHT22;35149;51.196;6.204;2023-07-22T01:52:51;18.30;53.80
49132;DHT22;35149;51.196;6.204;2023-07-22T01:55:22;18.30;53.80
49132;DHT22;35149;51.196;6.204;2023-07-22T01:57:56;18.30;53.80
49132;DHT22;35149;51.196;6.204;2023-07-22T02:00:22;18.20;53.80
49132;DHT22;35149;51.196;6.204;2023-07-22T02:02:51;18.20;53.90
49132;DHT22;35149;51.196;6.204;2023-07-22T02:05:20;18.20;54.00
49132;DHT22;35149;51.196;6.204;2023-07-22T02:07:56;18.20;54.00
49132;DHT22;35149;51.196;6.204;2023-07-22T02:10:25;18.20;54.00
49132;DHT22;35149;51.196;6.204;2023-07-22T02:12:52;18.10;54.10
49132;DHT22;35149;51.196;6.204;2023-07-22T02:15:21;18.10;54.10
49132;DHT22;35149;51.196;6.204;2023-07-22T02:17:51;18.10;54.20
49132;DHT22;35149;51.196;6.204;2023-07-22T02:20:21;18.10;54.10
49132;DHT22;35149;51.196;6.204;2023-07-22T02:22:47;18.00;54.00
49132;DHT22;35149;51.196;6.204;2023-07-22T02:25:16;18.00;54.20
49132;DHT22;35149;51.196;6.204;2023-07-22T02:27:48;18.00;54.50
49132;DHT22;35149;51.196;6.204;2023-07-22T02:30:15;18.00;54.60
49132;DHT22;35149;51.196;6.204;2023-07-22T02:32:44;17.90;54.60
49132;DHT22;35149;51.196;6.204;2023-07-22T02:35:14;17.90;54.70
49132;DHT22;35149;51.196;6.204;2023-07-22T02:37:43;17.90;54.90
49132;DHT22;35149;51.196;6.204;2023-07-22T02:40:11;17.90;54.70
49132;DHT22;35149;51.196;6.204;2023-07-22T02:42:40;17.80;54.70
49132;DHT22;35149;51.196;6.204;2023-07-22T02:45:15;17.80;54.70
49132;DHT22;35149;51.196;6.204;2023-07-22T02:47:42;17.80;54.70
49132;DHT22;35149;51.196;6.204;2023-07-22T02:50:09;17.80;54.80
49132;DHT22;35149;51.196;6.204;2023-07-22T02:52:45;17.80;54.80
49132;DHT22;35149;51.196;6.204;2023-07-22T02:55:16;17.80;54.80
49132;DHT22;35149;51.196;6.204;2023-07-22T02:57:50;17.80;55.10
49132;DHT22;35149;51.196;6.204;2023-07-22T03:00:18;17.80;55.00
49132;DHT22;35149;51.196;6.204;2023-07-22T03:02:53;17.80;55.40
49132;DHT22;35149;51.196;6.204;2023-07-22T03:05:23;17.80;55.10
49132;DHT22;35149;51.196;6.204;2023-07-22T03:07:52;17.80;55.20
49132;DHT22;35149;51.196;6.204;2023-07-22T03:10:19;17.80;55.20
49132;DHT22;35149;51.196;6.204;2023-07-22T03:12:47;17.80;55.20
49132;DHT22;35149;51.196;6.204;2023-07-22T03:15:18;17.80;55.10
49132;DHT22;35149;51.196;6.204;2023-07-22T03:17:45;17.80;55.20
49132;DHT22;35149;51.196;6.204;2023-07-22T03:20:12;17.80;55.10
49132;DHT22;35149;51.196;6.204;2023-07-22T03:22:46;17.80;55.30
49132;DHT22;35149;51.196;6.204;2023-07-22T03:25:14;17.80;55.30
49132;DHT22;35149;51.196;6.204;2023-07-22T03:27:44;17.90;55.70
49132;DHT22;35149;51.196;6.204;2023-07-22T03:30:18;17.80;55.60
49132;DHT22;35149;51.196;6.204;2023-07-22T03:32:46;17.80;55.50
49132;DHT22;35149;51.196;6.204;2023-07-22T03:35:17;17.80;55.50
49132;DHT22;35149;51.196;6.204;2023-07-22T03:37:45;17.90;55.80
49132;DHT22;35149;51.196;6.204;2023-07-22T03:40:12;17.90;55.80
49132;DHT22;35149;51.196;6.204;2023-07-22T03:42:54;17.90;55.60
49132;DHT22;35149;51.196;6.204;2023-07-22T03:45:22;18.00;55.50
49132;DHT22;35149;51.196;6.204;2023-07-22T03:47:59;18.00;55.50
49132;DHT22;35149;51.196;6.204;2023-07-22T03:50:27;18.00;55.80
49132;DHT22;35149;51.196;6.204;2023-07-22T03:52:58;17.90;55.50
49132;DHT22;35149;51.196;6.204;2023-07-22T03:55:25;18.00;55.40
49132;DHT22;35149;51.196;6.204;2023-07-22T03:57:52;18.00;55.30
49132;DHT22;35149;51.196;6.204;2023-07-22T04:00:20;18.00;55.40
49132;DHT22;35149;51.196;6.204;2023-07-22T04:02:49;18.00;55.30
49132;DHT22;35149;51.196;6.204;2023-07-22T04:05:16;18.00;55.30
49132;DHT22;35149;51.196;6.204;2023-07-22T04:07:44;18.00;55.30
49132;DHT22;35149;51.196;6.204;2023-07-22T04:10:11;17.90;55.30
49132;DHT22;35149;51.196;6.204;2023-07-22T04:12:40;18.00;55.40
49132;DHT22;35149;51.196;6.204;2023-07-22T04:15:09;18.00;55.50
49132;DHT22;35149;51.196;6.204;2023-07-22T04:17:36;18.00;55.50
49132;DHT22;35149;51.196;6.204;2023-07-22T04:20:03;18.00;55.40
49132;DHT22;35149;51.196;6.204;2023-07-22T04:22:30;18.00;55.50
49132;DHT22;35149;51.196;6.204;2023-07-22T04:24:58;18.00;55.60
49132;DHT22;35149;51.196;6.204;2023-07-22T04:27:27;18.00;55.60
49132;DHT22;35149;51.196;6.204;2023-07-22T04:29:54;18.00;55.60
49132;DHT22;35149;51.196;6.204;2023-07-22T04:32:20;18.00;55.70
49132;DHT22;35149;51.196;6.204;2023-07-22T04:34:51;18.00;55.50
49132;DHT22;35149;51.196;6.204;2023-07-22T04:37:23;18.00;55.50
49132;DHT22;35149;51.196;6.204;2023-07-22T04:39:54;18.00;55.70
49132;DHT22;35149;51.196;6.204;2023-07-22T04:42:21;18.00;55.60
49132;DHT22;35149;51.196;6.204;2023-07-22T04:44:47;18.00;55.60
49132;DHT22;35149;51.196;6.204;2023-07-22T04:47:17;18.00;55.60
49132;DHT22;35149;51.196;6.204;2023-07-22T04:49:46;18.10;55.70
49132;DHT22;35149;51.196;6.204;2023-07-22T04:52:17;18.10;55.60
49132;DHT22;35149;51.196;6.204;2023-07-22T04:54:47;18.10;55.80
49132;DHT22;35149;51.196;6.204;2023-07-22T04:57:14;18.10;55.80
49132;DHT22;35149;51.196;6.204;2023-07-22T04:59:45;18.10;55.90
49132;DHT22;35149;51.196;6.204;2023-07-22T05:02:17;18.10;55.80
49132;DHT22;35149;51.196;6.204;2023-07-22T05:04:43;18.10;55.80
49132;DHT22;35149;51.196;6.204;2023-07-22T05:07:14;18.10;55.80
49132;DHT22;35149;51.196;6.204;2023-07-22T05:09:49;18.10;55.80
49132;DHT22;35149;51.196;6.204;2023-07-22T05:12:24;18.10;55.70
49132;DHT22;35149;51.196;6.204;2023-07-22T05:14:52;18.10;55.80
49132;DHT22;35149;51.196;6.204;2023-07-22T05:17:20;18.20;55.70
49132;DHT22;35149;51.196;6.204;2023-07-22T05:19:52;18.10;55.40
49132;DHT22;35149;51.196;6.204;2023-07-22T05:22:18;18.10;55.50
49132;DHT22;35149;51.196;6.204;2023-07-22T05:24:45;18.10;55.50
49132;DHT22;35149;51.196;6.204;2023-07-22T05:27:14;18.10;55.80
49132;DHT22;35149;51.196;6.204;2023-07-22T05:29:43;18.10;55.90
49132;DHT22;35149;51.196;6.204;2023-07-22T05:32:11;18.10;55.90
49132;DHT22;35149;51.196;6.204;2023-07-22T05:34:58;18.10;55.90
49132;DHT22;35149;51.196;6.204;2023-07-22T05:37:25;18.20;56.10
49132;DHT22;35149;51.196;6.204;2023-07-22T05:39:51;18.20;56.20
49132;DHT22;35149;51.196;6.204;2023-07-22T05:42:20;18.20;56.20
49132;DHT22;35149;51.196;6.204;2023-07-22T05:44:48;18.30;56.20
49132;DHT22;35149;51.196;6.204;2023-07-22T05:47:14;18.30;56.30
49132;DHT22;35149;51.196;6.204;2023-07-22T05:49:44;18.30;56.20
49132;DHT22;35149;51.196;6.204;2023-07-22T05:52:17;18.40;56.20
49132;DHT22;35149;51.196;6.204;2023-07-22T05:54:43;18.40;56.10
49132;DHT22;35149;51.196;6.204;2023-07-22T05:57:10;18.50;56.20
49132;DHT22;35149;51.196;6.204;2023-07-22T05:59:37;18.50;56.20
49132;DHT22;35149;51.196;6.204;2023-07-22T06:02:09;18.50;56.50
49132;DHT22;35149;51.196;6.204;2023-07-22T06:04:36;18.60;56.60
49132;DHT22;35149;51.196;6.204;2023-07-22T06:07:04;18.60;56.50
49132;DHT22;35149;51.196;6.204;2023-07-22T06:09:31;18.70;56.40
49132;DHT22;35149;51.196;6.204;2023-07-22T06:11:58;18.70;56.40
49132;DHT22;35149;51.196;6.204;2023-07-22T06:14:26;18.80;56.40
49132;DHT22;35149;51.196;6.204;2023-07-22T06:16:59;18.90;56.40
49132;DHT22;35149;51.196;6.204;2023-07-22T06:19:26;18.90;56.40
49132;DHT22;35149;51.196;6.204;2023-07-22T06:21:54;19.00;56.30
49132;DHT22;35149;51.196;6.204;2023-07-22T06:24:25;19.00;56.20
49132;DHT22;35149;51.196;6.204;2023-07-22T06:26:57;19.10;56.20
49132;DHT22;35149;51.196;6.204;2023-07-22T06:29:28;19.10;56.20
49132;DHT22;35149;51.196;6.204;2023-07-22T06:31:55;19.20;56.30
49132;DHT22;35149;51.196;6.204;2023-07-22T06:34:21;19.20;56.20
49132;DHT22;35149;51.196;6.204;2023-07-22T06:36:48;19.20;56.40
49132;DHT22;35149;51.196;6.204;2023-07-22T06:39:15;19.30;56.30
49132;DHT22;35149;51.196;6.204;2023-07-22T06:41:42;19.30;56.20
49132;DHT22;35149;51.196;6.204;2023-07-22T06:44:08;19.40;56.20
49132;DHT22;35149;51.196;6.204;2023-07-22T06:46:35;19.40;56.40
49132;DHT22;35149;51.196;6.204;2023-07-22T06:49:02;19.50;56.40
49132;DHT22;35149;51.196;6.204;2023-07-22T06:51:29;19.50;56.70
49132;DHT22;35149;51.196;6.204;2023-07-22T06:53:56;19.60;56.60
49132;DHT22;35149;51.196;6.204;2023-07-22T06:56:22;19.60;56.50
49132;DHT22;35149;51.196;6.204;2023-07-22T06:58:49;19.70;56.60
49132;DHT22;35149;51.196;6.204;2023-07-22T07:01:17;19.80;56.60
49132;DHT22;35149;51.196;6.204;2023-07-22T07:03:44;19.90;56.60
49132;DHT22;35149;51.196;6.204;2023-07-22T07:06:11;20.00;56.50
49132;DHT22;35149;51.196;6.204;2023-07-22T07:08:38;20.10;56.40
49132;DHT22;35149;51.196;6.204;2023-07-22T07:11:06;20.10;56.60
49132;DHT22;35149;51.196;6.204;2023-07-22T07:13:33;20.20;56.10
49132;DHT22;35149;51.196;6.204;2023-07-22T07:16:20;20.20;55.80
49132;DHT22;35149;51.196;6.204;2023-07-22T07:18:49;20.40;56.00
49132;DHT22;35149;51.196;6.204;2023-07-22T07:21:15;20.40;55.60
49132;DHT22;35149;51.196;6.204;2023-07-22T07:23:42;20.40;56.10
49132;DHT22;35149;51.196;6.204;2023-07-22T07:26:09;20.50;55.80
49132;DHT22;35149;51.196;6.204;2023-07-22T07:28:38;20.50;56.10
49132;DHT22;35149;51.196;6.204;2023-07-22T07:31:05;20.60;55.90
49132;DHT22;35149;51.196;6.204;2023-07-22T07:33:33;20.60;55.80
49132;DHT22;35149;51.196;6.204;2023-07-22T07:36:01;20.70;55.80
49132;DHT22;35149;51.196;6.204;2023-07-22T07:38:30;20.80;55.80
49132;DHT22;35149;51.196;6.204;2023-07-22T07:41:05;20.80;55.80
49132;DHT22;35149;51.196;6.204;2023-07-22T07:43:39;20.90;55.70
49132;DHT22;35149;51.196;6.204;2023-07-22T07:46:27;20.90;55.90
49132;DHT22;35149;51.196;6.204;2023-07-22T07:49:02;21.00;55.40
49132;DHT22;35149;51.196;6.204;2023-07-22T07:51:31;21.10;55.40
49132;DHT22;35149;51.196;6.204;2023-07-22T07:53:59;21.10;55.00
49132;DHT22;35149;51.196;6.204;2023-07-22T07:56:26;21.10;54.90
49132;DHT22;35149;51.196;6.204;2023-07-22T07:58:55;21.20;55.30
49132;DHT22;35149;51.196;6.204;2023-07-22T08:01:25;21.20;55.40
49132;DHT22;35149;51.196;6.204;2023-07-22T08:03:51;21.20;54.90
49132;DHT22;35149;51.196;6.204;2023-07-22T08:06:18;21.30;54.80
49132;DHT22;35149;51.196;6.204;2023-07-22T08:08:48;21.30;54.60
49132;DHT22;35149;51.196;6.204;2023-07-22T08:11:16;21.30;54.80
49132;DHT22;35149;51.196;6.204;2023-07-22T08:13:43;21.40;55.10
49132;DHT22;35149;51.196;6.204;2023-07-22T08:16:12;21.40;55.40
49132;DHT22;35149;51.196;6.204;2023-07-22T08:18:39;21.50;55.40
49132;DHT22;35149;51.196;6.204;2023-07-22T08:21:06;21.60;54.90
49132;DHT22;35149;51.196;6.204;2023-07-22T08:23:35;21.70;55.10
49132;DHT22;35149;51.196;6.204;2023-07-22T08:26:03;21.80;54.20
49132;DHT22;35149;51.196;6.204;2023-07-22T08:28:32;21.80;53.60
49132;DHT22;35149;51.196;6.204;2023-07-22T08:31:02;21.80;53.50
49132;DHT22;35149;51.196;6.204;2023-07-22T08:33:29;21.90;53.70
49132;DHT22;35149;51.196;6.204;2023-07-22T08:36:08;22.00;53.20
49132;DHT22;35149;51.196;6.204;2023-07-22T08:38:35;22.00;53.00
49132;DHT22;35149;51.196;6.204;2023-07-22T08:41:02;22.10;53.00
49132;DHT22;35149;51.196;6.204;2023-07-22T08:43:29;22.20;52.30
49132;DHT22;35149;51.196;6.204;2023-07-22T08:46:00;22.20;52.80
49132;DHT22;35149;51.196;6.204;2023-07-22T08:48:30;22.30;52.10
49132;DHT22;35149;51.196;6.204;2023-07-22T08:51:16;22.40;51.70
49132;DHT22;35149;51.196;6.204;2023-07-22T08:53:45;22.50;51.60
49132;DHT22;35149;51.196;6.204;2023-07-22T08:56:26;22.60;51.40
49132;DHT22;35149;51.196;6.204;2023-07-22T08:58:53;22.60;52.00
49132;DHT22;35149;51.196;6.204;2023-07-22T09:01:22;22.70;51.80
49132;DHT22;35149;51.196;6.204;2023-07-22T09:03:50;22.80;51.20
49132;DHT22;35149;51.196;6.204;2023-07-22T09:06:19;22.90;51.20
49132;DHT22;35149;51.196;6.204;2023-07-22T09:08:46;23.00;51.00
49132;DHT22;35149;51.196;6.204;2023-07-22T09:11:13;23.00;50.70
49132;DHT22;35149;51.196;6.204;2023-07-22T09:13:43;23.10;50.80
49132;DHT22;35149;51.196;6.204;2023-07-22T09:16:11;23.20;49.80
49132;DHT22;35149;51.196;6.204;2023-07-22T09:18:39;23.20;49.40
49132;DHT22;35149;51.196;6.204;2023-07-22T09:21:06;23.30;49.40
49132;DHT22;35149;51.196;6.204;2023-07-22T09:23:36;23.30;48.90
49132;DHT22;35149;51.196;6.204;2023-07-22T09:26:11;23.30;49.00
49132;DHT22;35149;51.196;6.204;2023-07-22T09:28:55;23.40;49.00
49132;DHT22;35149;51.196;6.204;2023-07-22T09:31:24;23.40;48.40
49132;DHT22;35149;51.196;6.204;2023-07-22T09:33:52;23.40;49.00
49132;DHT22;35149;51.196;6.204;2023-07-22T09:36:20;23.40;49.20
49132;DHT22;35149;51.196;6.204;2023-07-22T09:39:13;23.40;48.80
49132;DHT22;35149;51.196;6.204;2023-07-22T09:41:42;23.40;48.60
49132;DHT22;35149;51.196;6.204;2023-07-22T09:44:12;23.30;48.50
49132;DHT22;35149;51.196;6.204;2023-07-22T09:46:38;23.20;48.40
49132;DHT22;35149;51.196;6.204;2023-07-22T09:49:08;23.10;48.80
49132;DHT22;35149;51.196;6.204;2023-07-22T09:51:37;23.10;49.40
49132;DHT22;35149;51.196;6.204;2023-07-22T09:54:22;23.10;49.50
49132;DHT22;35149;51.196;6.204;2023-07-22T09:56:49;23.10;49.90
49132;DHT22;35149;51.196;6.204;2023-07-22T09:59:18;23.10;50.10
49132;DHT22;35149;51.196;6.204;2023-07-22T10:01:46;23.10;50.30
49132;DHT22;35149;51.196;6.204;2023-07-22T10:04:16;23.10;49.50
49132;DHT22;35149;51.196;6.204;2023-07-22T10:06:43;23.10;49.10
49132;DHT22;35149;51.196;6.204;2023-07-22T10:09:11;23.10;48.80
49132;DHT22;35149;51.196;6.204;2023-07-22T10:11:39;23.10;48.40
49132;DHT22;35149;51.196;6.204;2023-07-22T10:14:06;23.10;48.50
49132;DHT22;35149;51.196;6.204;2023-07-22T10:16:34;23.10;48.80
49132;DHT22;35149;51.196;6.204;2023-07-22T10:19:05;23.20;48.10
49132;DHT22;35149;51.196;6.204;2023-07-22T10:21:33;23.20;48.30
49132;DHT22;35149;51.196;6.204;2023-07-22T10:24:02;23.20;49.00
49132;DHT22;35149;51.196;6.204;2023-07-22T10:26:31;23.30;48.00
49132;DHT22;35149;51.196;6.204;2023-07-22T10:29:07;23.30;48.10
49132;DHT22;35149;51.196;6.204;2023-07-22T10:31:35;23.40;47.40
49132;DHT22;35149;51.196;6.204;2023-07-22T10:34:05;23.40;47.40
49132;DHT22;35149;51.196;6.204;2023-07-22T10:36:31;23.60;47.40
49132;DHT22;35149;51.196;6.204;2023-07-22T10:38:59;23.70;46.80
49132;DHT22;35149;51.196;6.204;2023-07-22T10:41:30;23.80;46.70
49132;DHT22;35149;51.196;6.204;2023-07-22T10:43:58;23.90;47.00
49132;DHT22;35149;51.196;6.204;2023-07-22T10:46:37;24.00;46.20
49132;DHT22;35149;51.196;6.204;2023-07-22T10:49:14;24.20;46.40
49132;DHT22;35149;51.196;6.204;2023-07-22T10:51:50;24.30;45.50
49132;DHT22;35149;51.196;6.204;2023-07-22T10:54:32;24.30;44.80
49132;DHT22;35149;51.196;6.204;2023-07-22T10:57:23;24.40;44.70
49132;DHT22;35149;51.196;6.204;2023-07-22T10:59:52;24.30;44.80
49132;DHT22;35149;51.196;6.204;2023-07-22T11:02:26;24.30;44.60
49132;DHT22;35149;51.196;6.204;2023-07-22T11:04:56;24.30;44.70
49132;DHT22;35149;51.196;6.204;2023-07-22T11:07:35;24.30;45.20
49132;DHT22;35149;51.196;6.204;2023-07-22T11:10:16;24.40;44.90
49132;DHT22;35149;51.196;6.204;2023-07-22T11:12:45;24.40;45.00
49132;DHT22;35149;51.196;6.204;2023-07-22T11:15:15;24.50;45.20
49132;DHT22;35149;51.196;6.204;2023-07-22T11:17:42;24.50;44.80
49132;DHT22;35149;51.196;6.204;2023-07-22T11:20:12;24.50;44.90
49132;DHT22;35149;51.196;6.204;2023-07-22T11:22:41;24.60;44.80
49132;DHT22;35149;51.196;6.204;2023-07-22T11:25:16;24.60;44.20
49132;DHT22;35149;51.196;6.204;2023-07-22T11:27:43;24.70;44.00
49132;DHT22;35149;51.196;6.204;2023-07-22T11:30:11;24.80;44.30
49132;DHT22;35149;51.196;6.204;2023-07-22T11:32:42;24.90;43.70
49132;DHT22;35149;51.196;6.204;2023-07-22T11:35:09;25.00;43.20
49132;DHT22;35149;51.196;6.204;2023-07-22T11:37:35;25.10;43.10
49132;DHT22;35149;51.196;6.204;2023-07-22T11:40:02;25.20;43.10
49132;DHT22;35149;51.196;6.204;2023-07-22T11:42:29;25.30;43.60
49132;DHT22;35149;51.196;6.204;2023-07-22T11:44:57;25.40;43.00
49132;DHT22;35149;51.196;6.204;2023-07-22T11:47:29;25.40;43.40
49132;DHT22;35149;51.196;6.204;2023-07-22T11:49:58;25.60;42.50
49132;DHT22;35149;51.196;6.204;2023-07-22T11:52:25;25.70;42.40
49132;DHT22;35149;51.196;6.204;2023-07-22T11:54:51;25.80;42.20
49132;DHT22;35149;51.196;6.204;2023-07-22T11:57:23;25.90;42.40
49132;DHT22;35149;51.196;6.204;2023-07-22T11:59:52;26.00;41.70
49132;DHT22;35149;51.196;6.204;2023-07-22T12:02:21;26.10;42.20
49132;DHT22;35149;51.196;6.204;2023-07-22T12:05:04;26.30;41.70
49132;DHT22;35149;51.196;6.204;2023-07-22T12:07:34;26.40;41.30
49132;DHT22;35149;51.196;6.204;2023-07-22T12:10:06;26.50;41.00
49132;DHT22;35149;51.196;6.204;2023-07-22T12:12:44;26.60;40.70
49132;DHT22;35149;51.196;6.204;2023-07-22T12:15:17;26.70;40.00
49132;DHT22;35149;51.196;6.204;2023-07-22T12:17:51;26.70;40.20
49132;DHT22;35149;51.196;6.204;2023-07-22T12:20:24;26.60;39.20
49132;DHT22;35149;51.196;6.204;2023-07-22T12:22:52;26.70;39.00
49132;DHT22;35149;51.196;6.204;2023-07-22T12:25:19;26.60;39.70
49132;DHT22;35149;51.196;6.204;2023-07-22T12:27:46;26.60;40.00
49132;DHT22;35149;51.196;6.204;2023-07-22T12:30:13;26.70;39.50
49132;DHT22;35149;51.196;6.204;2023-07-22T12:32:42;26.80;39.40
49132;DHT22;35149;51.196;6.204;2023-07-22T12:35:09;26.80;38.60
49132;DHT22;35149;51.196;6.204;2023-07-22T12:37:36;27.00;39.00
49132;DHT22;35149;51.196;6.204;2023-07-22T12:40:03;27.10;38.60
49132;DHT22;35149;51.196;6.204;2023-07-22T12:42:32;27.20;38.90
49132;DHT22;35149;51.196;6.204;2023-07-22T12:44:59;27.20;38.20
49132;DHT22;35149;51.196;6.204;2023-07-22T12:47:25;27.30;38.10
49132;DHT22;35149;51.196;6.204;2023-07-22T12:49:52;27.30;38.20
49132;DHT22;35149;51.196;6.204;2023-07-22T12:52:19;27.40;38.30
49132;DHT22;35149;51.196;6.204;2023-07-22T12:54:46;27.50;37.90
49132;DHT22;35149;51.196;6.204;2023-07-22T12:57:12;27.60;37.60
49132;DHT22;35149;51.196;6.204;2023-07-22T12:59:39;27.70;37.40
49132;DHT22;35149;51.196;6.204;2023-07-22T13:02:07;27.70;36.80
49132;DHT22;35149;51.196;6.204;2023-07-22T13:04:34;27.80;36.70
49132;DHT22;35149;51.196;6.204;2023-07-22T13:07:00;27.80;36.60
49132;DHT22;35149;51.196;6.204;2023-07-22T13:09:27;27.80;36.40
49132;DHT22;35149;51.196;6.204;2023-07-22T13:11:54;27.90;36.60
49132;DHT22;35149;51.196;6.204;2023-07-22T13:14:20;28.00;36.10
49132;DHT22;35149;51.196;6.204;2023-07-22T13:16:47;28.10;36.30
49132;DHT22;35149;51.196;6.204;2023-07-22T13:19:14;28.20;36.50
49132;DHT22;35149;51.196;6.204;2023-07-22T13:21:40;28.40;36.80
49132;DHT22;35149;51.196;6.204;2023-07-22T13:24:07;28.60;36.40
49132;DHT22;35149;51.196;6.204;2023-07-22T13:26:34;28.90;36.30
49132;DHT22;35149;51.196;6.204;2023-07-22T13:29:04;29.00;36.00
49132;DHT22;35149;51.196;6.204;2023-07-22T13:31:31;29.20;35.60
49132;DHT22;35149;51.196;6.204;2023-07-22T13:33:58;29.40;35.80
49132;DHT22;35149;51.196;6.204;2023-07-22T13:36:26;29.50;35.20
49132;DHT22;35149;51.196;6.204;2023-07-22T13:38:55;29.60;35.00
49132;DHT22;35149;51.196;6.204;2023-07-22T13:41:24;29.80;34.90
49132;DHT22;35149;51.196;6.204;2023-07-22T13:43:56;30.00;34.70
49132;DHT22;35149;51.196;6.204;2023-07-22T13:46:26;30.20;34.90
49132;DHT22;35149;51.196;6.204;2023-07-22T13:48:54;30.50;34.40
49132;DHT22;35149;51.196;6.204;2023-07-22T13:51:28;30.90;33.80
49132;DHT22;35149;51.196;6.204;2023-07-22T13:53:59;31.20;33.20
49132;DHT22;35149;51.196;6.204;2023-07-22T13:56:28;31.40;33.80
49132;DHT22;35149;51.196;6.204;2023-07-22T13:59:00;31.70;33.20
49132;DHT22;35149;51.196;6.204;2023-07-22T14:01:27;31.90;32.90
49132;DHT22;35149;51.196;6.204;2023-07-22T14:03:54;32.20;32.90
49132;DHT22;35149;51.196;6.204;2023-07-22T14:06:21;32.70;32.60
49132;DHT22;35149;51.196;6.204;2023-07-22T14:08:48;33.30;32.10
49132;DHT22;35149;51.196;6.204;2023-07-22T14:11:18;33.80;31.40
49132;DHT22;35149;51.196;6.204;2023-07-22T14:13:47;34.40;30.80
49132;DHT22;35149;51.196;6.204;2023-07-22T14:16:17;35.00;31.10
49132;DHT22;35149;51.196;6.204;2023-07-22T14:18:53;35.70;30.10
49132;DHT22;35149;51.196;6.204;2023-07-22T14:21:23;36.20;29.60
49132;DHT22;35149;51.196;6.204;2023-07-22T14:23:55;36.70;29.40
49132;DHT22;35149;51.196;6.204;2023-07-22T14:26:24;37.00;32.10
49132;DHT22;35149;51.196;6.204;2023-07-22T14:28:51;37.40;32.10
49132;DHT22;35149;51.196;6.204;2023-07-22T14:31:20;37.90;29.20
49132;DHT22;35149;51.196;6.204;2023-07-22T14:33:47;38.30;28.40
49132;DHT22;35149;51.196;6.204;2023-07-22T14:36:14;38.60;28.10
49132;DHT22;35149;51.196;6.204;2023-07-22T14:38:42;39.00;27.90
49132;DHT22;35149;51.196;6.204;2023-07-22T14:41:08;39.30;27.40
49132;DHT22;35149;51.196;6.204;2023-07-22T14:43:46;39.40;26.80
49132;DHT22;35149;51.196;6.204;2023-07-22T14:46:12;39.40;26.40
49132;DHT22;35149;51.196;6.204;2023-07-22T14:48:39;39.40;26.40
49132;DHT22;35149;51.196;6.204;2023-07-22T14:51:10;39.40;26.20
49132;DHT22;35149;51.196;6.204;2023-07-22T14:53:37;39.40;26.50
49132;DHT22;35149;51.196;6.204;2023-07-22T14:56:06;39.40;26.40
49132;DHT22;35149;51.196;6.204;2023-07-22T14:58:36;39.30;26.30
49132;DHT22;35149;51.196;6.204;2023-07-22T15:01:04;39.10;26.20
49132;DHT22;35149;51.196;6.204;2023-07-22T15:03:30;38.90;26.20
49132;DHT22;35149;51.196;6.204;2023-07-22T15:05:57;38.80;25.90
49132;DHT22;35149;51.196;6.204;2023-07-22T15:08:25;38.60;25.60
49132;DHT22;35149;51.196;6.204;2023-07-22T15:10:52;38.10;25.50
49132;DHT22;35149;51.196;6.204;2023-07-22T15:13:19;37.60;25.50
49132;DHT22;35149;51.196;6.204;2023-07-22T15:15:46;37.10;25.80
49132;DHT22;35149;51.196;6.204;2023-07-22T15:18:12;36.50;26.00
49132;DHT22;35149;51.196;6.204;2023-07-22T15:20:39;36.10;26.20
49132;DHT22;35149;51.196;6.204;2023-07-22T15:23:05;35.70;26.40
49132;DHT22;35149;51.196;6.204;2023-07-22T15:25:33;35.40;26.50
49132;DHT22;35149;51.196;6.204;2023-07-22T15:28:00;35.20;26.90
49132;DHT22;35149;51.196;6.204;2023-07-22T15:30:26;35.00;26.80
49132;DHT22;35149;51.196;6.204;2023-07-22T15:32:53;34.90;27.10
49132;DHT22;35149;51.196;6.204;2023-07-22T15:35:20;34.90;27.50
49132;DHT22;35149;51.196;6.204;2023-07-22T15:37:50;34.80;27.60
49132;DHT22;35149;51.196;6.204;2023-07-22T15:40:17;34.90;27.70
49132;DHT22;35149;51.196;6.204;2023-07-22T15:42:45;35.10;27.90
49132;DHT22;35149;51.196;6.204;2023-07-22T15:45:11;35.30;27.80